Station Historical Data
Daily Summary for November 18, 2017 Units:  English    Metric   Both
« Previous Day
Next Day »
Daily Weekly Monthly Yearly Custom
  High: Low: Average:
Temperature: 66.0 °F 41.3 °F 55.1 °F
Dew Point: 61.0 °F 38.6 °F 50.2 °F
Humidity: 93% 71% 84%
Wind Speed: 6.9mph 0.0mph 1.6mph
Wind Gust: 6.9mph - -
Wind- - NW
Pressure: 30.10 in 29.67 in -
Precipitation: 0.34 in    
Historical Graphs
 
 
Tabular Data for November 18, 2017
Time Temperature Dew Point Pressure Wind Wind Speed Wind Gust Humidity Rainfall Rate (Hourly) solar Conditions
00:03 45.7 °F 41.8 °F 30.10 in Calm     86% 0.00 in WeatherDisplay:10.37 W/m2 SCT
00:08 45.8 °F 41.5 °F 30.10 in Calm     85% 0.00 in WeatherDisplay:10.37 W/m2 SCT
00:13 46.0 °F 41.7 °F 30.10 in Calm     85% 0.00 in WeatherDisplay:10.37 W/m2 SCT
00:18 46.0 °F 41.4 °F 30.10 in Calm     84% 0.00 in WeatherDisplay:10.37 W/m2 SCT
00:24 46.3 °F 41.7 °F 30.10 in Calm     84% 0.00 in WeatherDisplay:10.37 W/m2 SCT
00:29 46.4 °F 41.8 °F 30.10 in Calm     84% 0.00 in WeatherDisplay:10.37 W/m2 SCT
00:34 46.2 °F 41.3 °F 30.10 in Calm     83% 0.00 in WeatherDisplay:10.37 W/m2 SCT
00:39 46.1 °F 41.2 °F 30.09 in Calm     83% 0.00 in WeatherDisplay:10.37 W/m2 SCT
00:44 46.0 °F 41.1 °F 30.10 in Calm     83% 0.00 in WeatherDisplay:10.37 W/m2 SCT
00:49 45.9 °F 41.3 °F 30.10 in Calm     84% 0.00 in WeatherDisplay:10.37 W/m2 SCT
00:54 45.8 °F 41.2 °F 30.10 in Calm     84% 0.00 in WeatherDisplay:10.37 W/m2 SCT
00:59 45.5 °F 41.3 °F 30.10 in Calm     85% 0.00 in WeatherDisplay:10.37 W/m2 SCT
01:04 45.2 °F 41.0 °F 30.10 in Calm     85% 0.00 in WeatherDisplay:10.37 W/m2 SCT
01:09 44.9 °F 41.0 °F 30.09 in Calm     86% 0.00 in WeatherDisplay:10.37 W/m2 SCT
01:14 44.5 °F 40.6 °F 30.09 in Calm     86% 0.00 in WeatherDisplay:10.37 W/m2 SCT
01:19 44.3 °F 40.7 °F 30.09 in Calm     87% 0.00 in WeatherDisplay:10.37 W/m2 SCT
01:24 44.2 °F 40.6 °F 30.09 in Calm     87% 0.00 in WeatherDisplay:10.37 W/m2 SCT
01:30 44.1 °F 40.5 °F 30.09 in Calm     87% 0.00 in WeatherDisplay:10.37 W/m2 SCT
01:35 44.0 °F 40.7 °F 30.09 in Calm     88% 0.00 in WeatherDisplay:10.37 W/m2 SCT
01:40 43.9 °F 40.6 °F 30.09 in Calm     88% 0.00 in WeatherDisplay:10.37 W/m2 SCT
01:45 43.9 °F 40.6 °F 30.09 in Calm     88% 0.00 in WeatherDisplay:10.37 W/m2 SCT
01:50 43.8 °F 40.5 °F 30.09 in Calm     88% 0.00 in WeatherDisplay:10.37 W/m2 SCT
01:55 43.7 °F 40.4 °F 30.09 in Calm     88% 0.00 in WeatherDisplay:10.37 W/m2 SCT
01:56 43.7 °F 40.4 °F 30.09 in Calm     88% 0.00 in WeatherDisplay:10.37 W/m2 SCT
02:02 43.6 °F 40.3 °F 30.09 in Calm     88% 0.00 in WeatherDisplay:10.37 W/m2 SCT
02:07 43.5 °F 40.2 °F 30.08 in Calm     88% 0.00 in WeatherDisplay:10.37 W/m2 SCT
02:12 43.3 °F 40.3 °F 30.08 in Calm     89% 0.00 in WeatherDisplay:10.37 W/m2 SCT
02:17 43.2 °F 40.2 °F 30.08 in Calm     89% 0.00 in WeatherDisplay:10.37 W/m2 SCT
02:22 43.2 °F 40.2 °F 30.08 in Calm     89% 0.00 in WeatherDisplay:10.37 W/m2 SCT
02:27 43.2 °F 40.2 °F 30.08 in Calm     89% 0.00 in WeatherDisplay:10.37 W/m2 SCT
02:32 43.4 °F 40.4 °F 30.08 in Calm     89% 0.00 in WeatherDisplay:10.37 W/m2 SCT
02:37 43.5 °F 40.2 °F 30.08 in Calm     88% 0.00 in WeatherDisplay:10.37 W/m2 SCT
02:42 43.4 °F 40.1 °F 30.08 in Calm     88% 0.00 in WeatherDisplay:10.37 W/m2 SCT
02:47 43.3 °F 40.3 °F 30.08 in Calm     89% 0.00 in WeatherDisplay:10.37 W/m2 SCT
02:52 43.5 °F 40.5 °F 30.07 in Calm     89% 0.00 in WeatherDisplay:10.37 W/m2 SCT
02:57 43.6 °F 40.3 °F 30.07 in Calm     88% 0.00 in WeatherDisplay:10.37 W/m2 SCT
03:02 43.6 °F 40.3 °F 30.07 in Calm     88% 0.00 in WeatherDisplay:10.37 W/m2 SCT
03:07 43.5 °F 40.2 °F 30.07 in Calm     88% 0.00 in WeatherDisplay:10.37 W/m2 SCT
03:13 43.3 °F 40.0 °F 30.08 in Calm     88% 0.00 in WeatherDisplay:10.37 W/m2 SCT
03:18 43.3 °F 40.0 °F 30.08 in Calm     88% 0.00 in WeatherDisplay:10.37 W/m2 SCT
03:23 43.1 °F 39.8 °F 30.08 in Calm     88% 0.00 in WeatherDisplay:10.37 W/m2 SCT
03:28 43.1 °F 39.8 °F 30.08 in Calm     88% 0.00 in WeatherDisplay:10.37 W/m2 SCT
03:33 43.0 °F 39.7 °F 30.07 in Calm     88% 0.00 in WeatherDisplay:10.37 W/m2 SCT
03:38 42.9 °F 39.9 °F 30.08 in Calm     89% 0.00 in WeatherDisplay:10.37 W/m2 SCT
03:43 42.9 °F 39.9 °F 30.07 in Calm     89% 0.00 in WeatherDisplay:10.37 W/m2 SCT
03:48 42.7 °F 39.7 °F 30.07 in Calm     89% 0.00 in WeatherDisplay:10.37 W/m2 SCT
03:54 42.5 °F 39.5 °F 30.07 in Calm     89% 0.00 in WeatherDisplay:10.37 W/m2 SCT
03:59 42.3 °F 39.3 °F 30.07 in Calm     89% 0.00 in WeatherDisplay:10.37 W/m2 SCT
04:04 42.3 °F 39.6 °F 30.06 in Calm     90% 0.00 in WeatherDisplay:10.37 W/m2 SCT
04:09 42.3 °F 39.6 °F 30.06 in Calm     90% 0.00 in WeatherDisplay:10.37 W/m2 SCT
04:14 42.3 °F 39.6 °F 30.07 in Calm     90% 0.00 in WeatherDisplay:10.37 W/m2 SCT
04:19 42.5 °F 39.8 °F 30.06 in Calm     90% 0.00 in WeatherDisplay:10.37 W/m2 SCT
04:24 42.5 °F 39.8 °F 30.06 in Calm     90% 0.00 in WeatherDisplay:10.37 W/m2 SCT
04:29 42.4 °F 39.7 °F 30.06 in Calm     90% 0.00 in WeatherDisplay:10.37 W/m2 SCT
04:34 42.3 °F 39.6 °F 30.06 in Calm     90% 0.00 in WeatherDisplay:10.37 W/m2 SCT
04:40 42.2 °F 39.5 °F 30.06 in Calm     90% 0.00 in WeatherDisplay:10.37 W/m2 SCT
04:45 42.2 °F 39.5 °F 30.07 in Calm     90% 0.00 in WeatherDisplay:10.37 W/m2 SCT
04:50 42.1 °F 39.4 °F 30.06 in Calm     90% 0.00 in WeatherDisplay:10.37 W/m2 SCT
04:55 42.0 °F 39.3 °F 30.06 in Calm     90% 0.00 in WeatherDisplay:10.37 W/m2 SCT
05:00 42.0 °F 39.3 °F 30.06 in Calm     90% 0.00 in WeatherDisplay:10.37 W/m2 SCT
05:05 41.9 °F 39.2 °F 30.06 in Calm     90% 0.00 in WeatherDisplay:10.37 W/m2 SCT
05:10 41.8 °F 39.1 °F 30.07 in Calm     90% 0.00 in WeatherDisplay:10.37 W/m2 SCT
05:15 41.7 °F 39.0 °F 30.07 in Calm     90% 0.00 in WeatherDisplay:10.37 W/m2 SCT
05:20 41.7 °F 39.0 °F 30.06 in Calm     90% 0.00 in WeatherDisplay:10.37 W/m2 SCT
05:25 41.6 °F 38.9 °F 30.06 in Calm     90% 0.00 in WeatherDisplay:10.37 W/m2 SCT
05:30 41.4 °F 38.7 °F 30.06 in Calm     90% 0.00 in WeatherDisplay:10.37 W/m2 SCT
05:35 41.4 °F 38.7 °F 30.06 in Calm     90% 0.00 in WeatherDisplay:10.37 W/m2 SCT
05:40 41.3 °F 38.6 °F 30.06 in Calm     90% 0.00 in WeatherDisplay:10.37 W/m2 SCT
05:46 41.3 °F 38.9 °F 30.05 in Calm     91% 0.00 in WeatherDisplay:10.37 W/m2 SCT
05:51 41.3 °F 38.9 °F 30.05 in Calm     91% 0.00 in WeatherDisplay:10.37 W/m2 SCT
05:56 41.3 °F 38.9 °F 30.05 in Calm     91% 0.00 in WeatherDisplay:10.37 W/m2 SCT
06:01 41.4 °F 39.0 °F 30.06 in Calm     91% 0.00 in WeatherDisplay:10.37 W/m2 SCT
06:11 41.7 °F 39.3 °F 30.05 in Calm     91% 0.00 in WeatherDisplay:10.37 W/m2 SCT
06:16 41.7 °F 39.3 °F 30.06 in Calm     91% 0.00 in WeatherDisplay:10.37 W/m2 SCT
06:21 41.8 °F 39.4 °F 30.06 in Calm     91% 0.00 in WeatherDisplay:10.37 W/m2 CLR
06:26 41.9 °F 39.5 °F 30.06 in Calm     91% 0.00 in WeatherDisplay:10.37 W/m2 CLR
06:31 42.1 °F 39.7 °F 30.06 in Calm     91% 0.00 in WeatherDisplay:10.37 W/m2 CLR
06:36 42.1 °F 39.7 °F 30.05 in Calm     91% 0.00 in WeatherDisplay:10.37 W/m2 CLR
06:41 42.1 °F 39.7 °F 30.05 in Calm     91% 0.00 in WeatherDisplay:10.37 W/m2 CLR
06:46 42.2 °F 39.8 °F 30.06 in Calm     91% 0.00 in WeatherDisplay:10.37 W/m2 CLR
06:52 42.2 °F 39.8 °F 30.05 in Calm     91% 0.00 in WeatherDisplay:10.37 W/m2 CLR
06:57 42.2 °F 39.8 °F 30.05 in Calm     91% 0.00 in WeatherDisplay:10.37 W/m2 CLR
07:02 42.2 °F 39.8 °F 30.05 in Calm     91% 0.00 in WeatherDisplay:10.37 W/m2 CLR
07:07 42.2 °F 39.8 °F 30.05 in Calm     91% 0.00 in WeatherDisplay:10.37 W/m2 CLR
07:12 42.3 °F 39.9 °F 30.06 in Calm     91% 0.00 in WeatherDisplay:10.37 W/m2 FEW
07:17 42.3 °F 39.9 °F 30.06 in Calm     91% 0.00 in WeatherDisplay:10.37 W/m2 FEW
07:22 42.2 °F 39.8 °F 30.05 in Calm     91% 0.00 in WeatherDisplay:10.37 W/m2 BKN
07:27 42.3 °F 40.1 °F 30.06 in Calm     92% 0.00 in WeatherDisplay:10.37 W/m2 BKN
07:32 42.5 °F 40.3 °F 30.06 in Calm     92% 0.00 in WeatherDisplay:10.37 W/m2 BKN
07:37 42.7 °F 40.5 °F 30.06 in Calm     92% 0.00 in WeatherDisplay:10.37 W/m2 BKN
07:42 42.8 °F 40.6 °F 30.06 in Calm     92% 0.00 in WeatherDisplay:10.37 W/m2 BKN
07:47 43.1 °F 40.9 °F 30.05 in Calm     92% 0.00 in WeatherDisplay:10.37 W/m2 BKN
07:52 43.5 °F 41.3 °F 30.06 in Calm     92% 0.00 in WeatherDisplay:10.37 W/m2 BKN
07:58 43.7 °F 41.5 °F 30.06 in Calm     92% 0.00 in WeatherDisplay:10.37 W/m2 BKN
08:03 44.1 °F 42.2 °F 30.06 in Calm     93% 0.00 in WeatherDisplay:10.37 W/m2 OVC
08:08 44.4 °F 42.2 °F 30.06 in Calm     92% 0.00 in WeatherDisplay:10.37 W/m2 OVC
08:13 44.7 °F 42.8 °F 30.05 in Calm     93% 0.00 in WeatherDisplay:10.37 W/m2 OVC
08:18 44.9 °F 42.7 °F 30.05 in Calm     92% 0.00 in WeatherDisplay:10.37 W/m2 OVC
08:23 45.2 °F 43.0 °F 30.05 in Calm     92% 0.00 in WeatherDisplay:10.37 W/m2 OVC
08:28 45.7 °F 43.8 °F 30.05 in Calm     93% 0.00 in WeatherDisplay:10.37 W/m2 OVC
08:33 46.2 °F 44.3 °F 30.05 in Calm     93% 0.00 in WeatherDisplay:10.37 W/m2 OVC
08:38 46.7 °F 44.8 °F 30.05 in Calm     93% 0.00 in WeatherDisplay:10.37 W/m2 OVC
08:43 47.2 °F 45.3 °F 30.05 in Calm     93% 0.00 in WeatherDisplay:10.37 W/m2 OVC
08:48 47.7 °F 45.8 °F 30.04 in Calm     93% 0.00 in WeatherDisplay:10.37 W/m2 OVC
08:53 48.2 °F 46.3 °F 30.04 in NNW 1.2 mph   93% 0.00 in WeatherDisplay:10.37 W/m2 OVC
08:59 48.6 °F 46.7 °F 30.04 in NNW 1.2 mph   93% 0.00 in WeatherDisplay:10.37 W/m2 OVC
09:04 49.0 °F 46.8 °F 30.04 in Calm     92% 0.00 in WeatherDisplay:10.37 W/m2 OVC
09:09 49.4 °F 47.2 °F 30.04 in NNW 1.2 mph   92% 0.00 in WeatherDisplay:10.37 W/m2 OVC
09:14 49.6 °F 47.1 °F 30.03 in NNW 1.2 mph   91% 0.00 in WeatherDisplay:10.37 W/m2 OVC
09:19 50.0 °F 47.5 °F 30.03 in NNW 1.2 mph   91% 0.00 in WeatherDisplay:10.37 W/m2 OVC
09:24 50.4 °F 47.9 °F 30.04 in Calm     91% 0.00 in WeatherDisplay:10.37 W/m2 OVC
09:29 50.8 °F 48.0 °F 30.04 in NNW 1.2 mph   90% 0.00 in WeatherDisplay:10.37 W/m2 OVC
09:34 51.1 °F 48.0 °F 30.03 in NNW 1.2 mph   89% 0.00 in WeatherDisplay:10.37 W/m2 OVC
09:39 51.3 °F 48.2 °F 30.03 in NNW 1.2 mph   89% 0.00 in WeatherDisplay:10.37 W/m2 OVC
09:44 51.7 °F 48.6 °F 30.03 in NNW 1.2 mph   89% 0.00 in WeatherDisplay:10.37 W/m2 OVC
09:49 52.1 °F 48.7 °F 30.03 in NNW 1.2 mph   88% 0.00 in WeatherDisplay:10.37 W/m2 OVC
09:54 52.5 °F 49.0 °F 30.03 in NW 1.2 mph   88% 0.00 in WeatherDisplay:10.37 W/m2 BKN
09:59 52.9 °F 48.8 °F 30.02 in Calm   0.3 mph 86% 0.00 in WeatherDisplay:10.37 W/m2 BKN
10:04 53.3 °F 49.2 °F 30.03 in NW 1.2 mph   86% 0.00 in WeatherDisplay:10.37 W/m2 OVC
10:10 53.6 °F 49.2 °F 30.02 in NW 1.2 mph   85% 0.00 in WeatherDisplay:10.37 W/m2 OVC
10:15 54.1 °F 49.7 °F 30.02 in Calm     85% 0.00 in WeatherDisplay:10.37 W/m2 OVC
10:20 54.7 °F 50.0 °F 30.01 in NW 2.3 mph 2.3 mph 84% 0.00 in WeatherDisplay:10.37 W/m2 OVC
10:25 55.7 °F 50.6 °F 30.01 in NW 2.3 mph   83% 0.00 in WeatherDisplay:10.37 W/m2 OVC
10:30 57.1 °F 51.0 °F 30.01 in NW 2.3 mph   80% 0.00 in WeatherDisplay:10.37 W/m2 OVC
10:35 58.0 °F 51.2 °F 30.00 in NW 1.2 mph 1.2 mph 78% 0.00 in WeatherDisplay:10.37 W/m2 OVC
10:40 59.0 °F 51.8 °F 30.01 in NW 2.3 mph 2.3 mph 77% 0.00 in WeatherDisplay:10.37 W/m2 OVC
10:45 59.8 °F 51.5 °F 30.00 in NW 2.3 mph 2.3 mph 74% 0.00 in WeatherDisplay:10.37 W/m2 OVC
10:50 60.4 °F 52.1 °F 29.99 in NW 2.3 mph 2.3 mph 74% 0.00 in WeatherDisplay:10.37 W/m2 OVC
10:55 61.0 °F 51.5 °F 30.00 in WNW 3.5 mph 3.5 mph 71% 0.00 in WeatherDisplay:10.37 W/m2 OVC
11:00 60.9 °F 51.8 °F 29.99 in WNW 3.5 mph   72% 0.00 in WeatherDisplay:10.37 W/m2 OVC
11:05 60.9 °F 51.8 °F 29.99 in West 3.5 mph 3.5 mph 72% 0.00 in WeatherDisplay:10.37 W/m2 OVC
11:10 61.1 °F 52.0 °F 29.98 in WNW 2.3 mph 2.3 mph 72% 0.00 in WeatherDisplay:10.37 W/m2 OVC
11:16 61.3 °F 52.2 °F 29.98 in WNW 3.5 mph   72% 0.00 in WeatherDisplay:10.37 W/m2 BKN
11:21 61.2 °F 52.1 °F 29.98 in NW 3.5 mph   72% 0.00 in WeatherDisplay:10.37 W/m2 BKN
11:26 61.3 °F 52.6 °F 29.98 in WNW 2.3 mph   73% 0.00 in WeatherDisplay:10.37 W/m2 BKN
11:31 61.4 °F 52.7 °F 29.97 in WNW 2.3 mph 2.3 mph 73% 0.00 in WeatherDisplay:10.37 W/m2 BKN
11:36 61.7 °F 52.6 °F 29.97 in NW 2.3 mph 2.3 mph 72% 0.00 in WeatherDisplay:10.37 W/m2 BKN
11:41 61.9 °F 53.1 °F 29.96 in NW 3.5 mph 3.5 mph 73% 0.00 in WeatherDisplay:10.37 W/m2 BKN
11:46 62.1 °F 53.3 °F 29.96 in NNW 3.5 mph   73% 0.00 in WeatherDisplay:10.37 W/m2 BKN
11:56 62.3 °F 53.5 °F 29.95 in WNW 2.3 mph 2.3 mph 73% 0.00 in WeatherDisplay:10.37 W/m2 BKN
12:01 62.7 °F 53.9 °F 29.94 in NW 1.2 mph   73% 0.00 in WeatherDisplay:10.37 W/m2 BKN
12:06 62.9 °F 54.1 °F 29.94 in NW 2.3 mph   73% 0.00 in WeatherDisplay:10.37 W/m2 BKN
12:11 62.7 °F 53.9 °F 29.93 in WNW 2.3 mph   73% 0.00 in WeatherDisplay:10.37 W/m2 BKN
12:16 62.6 °F 54.2 °F 29.93 in WNW 2.3 mph   74% 0.00 in WeatherDisplay:10.37 W/m2 BKN
12:21 62.5 °F 54.5 °F 29.93 in WNW 2.3 mph   75% 0.00 in WeatherDisplay:10.37 W/m2 BKN
12:27 62.3 °F 54.3 °F 29.92 in Calm     75% 0.00 in WeatherDisplay:10.37 W/m2 BKN
12:32 62.1 °F 54.4 °F 29.92 in NW 1.2 mph 1.2 mph 76% 0.00 in WeatherDisplay:10.37 W/m2 BKN
12:37 61.9 °F 55.0 °F 29.91 in NW 1.2 mph   78% 0.00 in WeatherDisplay:10.37 W/m2 BKN
12:42 61.9 °F 55.0 °F 29.91 in WNW 1.2 mph   78% 0.00 in WeatherDisplay:10.37 W/m2 BKN
12:47 61.9 °F 55.0 °F 29.90 in Calm     78% 0.00 in WeatherDisplay:10.37 W/m2 BKN
12:52 61.9 °F 55.0 °F 29.90 in WNW 1.2 mph   78% 0.00 in WeatherDisplay:10.37 W/m2 BKN
12:57 62.3 °F 55.7 °F 29.90 in WNW 1.2 mph   79% 0.00 in WeatherDisplay:10.37 W/m2 BKN
13:02 63.4 °F 56.1 °F 29.89 in WNW 2.3 mph 2.3 mph 77% 0.00 in WeatherDisplay:10.37 W/m2 OVC
13:07 64.1 °F 56.4 °F 29.89 in WNW 2.3 mph 2.3 mph 76% 0.00 in WeatherDisplay:10.37 W/m2 OVC
13:12 64.8 °F 56.3 °F 29.88 in NW 2.3 mph 2.3 mph 74% 0.00 in WeatherDisplay:10.37 W/m2 OVC
13:17 65.1 °F 56.2 °F 29.88 in WNW 2.3 mph 2.3 mph 73% 0.00 in WeatherDisplay:10.37 W/m2 OVC
13:22 65.2 °F 55.9 °F 29.88 in WNW 2.3 mph 2.3 mph 72% 0.00 in WeatherDisplay:10.37 W/m2 OVC
13:27 65.2 °F 56.7 °F 29.87 in WNW 2.3 mph   74% 0.00 in WeatherDisplay:10.37 W/m2 OVC
13:32 65.1 °F 56.2 °F 29.87 in NW 2.3 mph 2.3 mph 73% 0.00 in WeatherDisplay:10.37 W/m2 OVC
13:38 65.2 °F 56.7 °F 29.87 in WNW 1.2 mph 1.2 mph 74% 0.00 in WeatherDisplay:10.37 W/m2 OVC
13:43 65.1 °F 56.2 °F 29.86 in NW 2.3 mph   73% 0.00 in WeatherDisplay:10.37 W/m2 OVC
13:48 64.9 °F 56.4 °F 29.86 in NW 2.3 mph   74% 0.00 in WeatherDisplay:10.37 W/m2 OVC
13:53 64.7 °F 56.6 °F 29.86 in NNW 1.2 mph 1.2 mph 75% 0.00 in WeatherDisplay:10.37 W/m2 OVC
13:58 64.5 °F 56.4 °F 29.86 in NW 2.3 mph   75% 0.00 in WeatherDisplay:10.37 W/m2 OVC
14:03 64.6 °F 56.5 °F 29.85 in WNW 2.3 mph   75% 0.00 in WeatherDisplay:10.37 W/m2 OVC
14:08 64.6 °F 56.5 °F 29.85 in WNW 1.2 mph 1.2 mph 75% 0.00 in WeatherDisplay:10.37 W/m2 OVC
14:13 64.6 °F 56.9 °F 29.85 in WNW 1.2 mph 1.2 mph 76% 0.00 in WeatherDisplay:10.37 W/m2 OVC
14:18 64.6 °F 56.9 °F 29.84 in WNW 1.2 mph 1.2 mph 76% 0.00 in WeatherDisplay:10.37 W/m2 OVC
14:23 64.5 °F 56.8 °F 29.84 in NW 2.3 mph   76% 0.00 in WeatherDisplay:10.37 W/m2 OVC
14:28 64.5 °F 56.8 °F 29.84 in NW 2.3 mph   76% 0.00 in WeatherDisplay:10.37 W/m2 OVC
14:33 64.6 °F 56.9 °F 29.84 in NW 1.2 mph   76% 0.00 in WeatherDisplay:10.37 W/m2 OVC
14:38 64.7 °F 57.0 °F 29.83 in NW 1.2 mph   76% 0.00 in WeatherDisplay:10.37 W/m2 OVC
14:43 64.8 °F 57.1 °F 29.83 in NW 1.2 mph   76% 0.00 in WeatherDisplay:10.37 W/m2 OVC
14:49 64.8 °F 57.1 °F 29.83 in NW 1.2 mph   76% 0.00 in WeatherDisplay:10.37 W/m2 OVC
14:54 64.8 °F 57.4 °F 29.83 in NW 1.2 mph   77% 0.00 in WeatherDisplay:10.37 W/m2 OVC
14:59 64.7 °F 57.3 °F 29.83 in Calm     77% 0.00 in WeatherDisplay:10.37 W/m2 OVC
15:04 64.7 °F 57.3 °F 29.83 in WNW 1.2 mph   77% 0.00 in WeatherDisplay:10.37 W/m2 OVC
15:09 64.6 °F 57.2 °F 29.83 in WNW 1.2 mph   77% 0.00 in WeatherDisplay:10.37 W/m2 OVC
15:14 64.5 °F 57.1 °F 29.83 in WNW 1.2 mph   77% 0.00 in WeatherDisplay:10.37 W/m2 OVC
15:19 64.5 °F 57.5 °F 29.83 in WNW 1.2 mph   78% 0.00 in WeatherDisplay:10.37 W/m2 OVC
15:24 64.4 °F 57.4 °F 29.83 in WNW 1.2 mph   78% 0.00 in WeatherDisplay:10.37 W/m2 OVC
15:29 64.3 °F 57.3 °F 29.83 in NW 1.2 mph   78% 0.00 in WeatherDisplay:10.37 W/m2 OVC
15:34 64.3 °F 57.6 °F 29.83 in Calm     79% 0.00 in WeatherDisplay:10.37 W/m2 OVC
15:39 64.2 °F 57.5 °F 29.83 in Calm     79% 0.00 in WeatherDisplay:10.37 W/m2 OVC
15:44 64.2 °F 57.5 °F 29.82 in Calm     79% 0.00 in WeatherDisplay:10.37 W/m2 OVC
15:49 64.2 °F 57.5 °F 29.83 in NNW 1.2 mph   79% 0.00 in WeatherDisplay:10.37 W/m2 OVC
15:54 64.2 °F 57.5 °F 29.82 in WNW 1.2 mph   79% 0.00 in WeatherDisplay:10.37 W/m2 OVC
16:00 64.1 °F 57.5 °F 29.82 in Calm     79% 0.00 in WeatherDisplay:10.37 W/m2 OVC
16:05 64.1 °F 57.4 °F 29.82 in Calm   1.0 mph 79% 0.00 in WeatherDisplay:10.37 W/m2 OVC
16:10 64.1 °F 57.5 °F 29.82 in Calm   1.0 mph 79% 0.00 in WeatherDisplay:10.37 W/m2 OVC
16:15 64.2 °F 57.5 °F 29.82 in WNW 1.2 mph   79% 0.00 in WeatherDisplay:10.37 W/m2 OVC
16:20 64.1 °F 57.5 °F 29.81 in WNW 1.2 mph 1.2 mph 79% 0.00 in WeatherDisplay:10.37 W/m2 OVC
16:25 64.3 °F 57.6 °F 29.81 in WNW 4.6 mph 4.6 mph 79% 0.00 in WeatherDisplay:10.37 W/m2 OVC
16:30 64.6 °F 57.6 °F 29.81 in NW 4.6 mph 4.6 mph 78% 0.00 in WeatherDisplay:10.37 W/m2 OVC
16:35 64.8 °F 57.8 °F 29.80 in NW 4.6 mph 4.6 mph 78% 0.00 in WeatherDisplay:10.37 W/m2 OVC
16:40 64.8 °F 57.8 °F 29.81 in NW 2.3 mph   78% 0.00 in WeatherDisplay:10.37 W/m2 OVC
16:45 64.7 °F 57.7 °F 29.81 in NW 1.2 mph   78% 0.00 in WeatherDisplay:10.37 W/m2 OVC
16:50 64.6 °F 57.6 °F 29.81 in West 1.2 mph   78% 0.00 in WeatherDisplay:10.37 W/m2 OVC
16:55 64.5 °F 57.5 °F 29.80 in West 2.3 mph 2.3 mph 78% 0.00 in WeatherDisplay:10.37 W/m2 OVC
17:00 64.5 °F 57.5 °F 29.80 in WNW 2.3 mph 2.3 mph 78% 0.00 in WeatherDisplay:10.37 W/m2 OVC
17:06 64.6 °F 57.6 °F 29.80 in NW 3.5 mph   78% 0.00 in WeatherDisplay:10.37 W/m2 OVC
17:11 64.5 °F 57.5 °F 29.80 in NW 3.5 mph 3.5 mph 78% 0.00 in WeatherDisplay:10.37 W/m2 OVC
17:16 64.5 °F 57.5 °F 29.79 in NW 2.3 mph 2.3 mph 78% 0.00 in WeatherDisplay:10.37 W/m2 OVC
17:21 64.4 °F 57.4 °F 29.79 in NW 2.3 mph 2.3 mph 78% 0.00 in WeatherDisplay:10.37 W/m2 OVC
17:26 64.5 °F 57.5 °F 29.79 in NW 2.3 mph 2.3 mph 78% 0.00 in WeatherDisplay:10.37 W/m2 OVC
17:31 64.5 °F 57.5 °F 29.79 in NW 2.3 mph   78% 0.00 in WeatherDisplay:10.37 W/m2 OVC
17:36 64.3 °F 57.6 °F 29.79 in NW 2.3 mph   79% 0.00 in WeatherDisplay:10.37 W/m2 OVC
17:41 64.3 °F 57.6 °F 29.79 in NW 1.2 mph   79% 0.00 in WeatherDisplay:10.37 W/m2 OVC
17:46 64.3 °F 57.6 °F 29.78 in NW 2.3 mph   79% 0.00 in WeatherDisplay:10.37 W/m2 OVC
17:51 64.4 °F 57.7 °F 29.78 in WNW 2.3 mph   79% 0.00 in WeatherDisplay:10.37 W/m2 OVC
17:56 64.2 °F 57.5 °F 29.78 in WNW 1.2 mph   79% 0.00 in WeatherDisplay:10.37 W/m2 OVC
18:01 64.3 °F 57.6 °F 29.78 in NW 2.3 mph 2.3 mph 79% 0.00 in WeatherDisplay:10.37 W/m2 OVC
18:06 64.5 °F 57.8 °F 29.78 in NW 2.3 mph   79% 0.00 in WeatherDisplay:10.37 W/m2 OVC
18:11 64.5 °F 57.8 °F 29.78 in WNW 2.3 mph 2.3 mph 79% 0.00 in WeatherDisplay:10.37 W/m2 OVC
18:17 64.6 °F 57.9 °F 29.78 in NW 2.3 mph 2.3 mph 79% 0.00 in WeatherDisplay:10.37 W/m2 OVC
18:22 64.6 °F 57.9 °F 29.77 in NW 2.3 mph 2.3 mph 79% 0.00 in WeatherDisplay:10.37 W/m2 OVC
18:27 64.6 °F 57.9 °F 29.77 in NW 2.3 mph 2.3 mph 79% 0.00 in WeatherDisplay:10.37 W/m2 OVC
18:32 64.6 °F 57.9 °F 29.77 in WNW 2.3 mph 2.3 mph 79% 0.00 in WeatherDisplay:10.37 W/m2 OVC
18:37 64.7 °F 58.0 °F 29.76 in WNW 3.5 mph 3.5 mph 79% 0.00 in WeatherDisplay:10.37 W/m2 OVC
18:42 64.7 °F 58.0 °F 29.75 in NW 3.5 mph 3.5 mph 79% 0.00 in WeatherDisplay:10.37 W/m2 OVC
18:47 64.8 °F 58.1 °F 29.75 in NW 3.5 mph 3.5 mph 79% 0.00 in WeatherDisplay:10.37 W/m2 OVC
18:52 64.7 °F 58.0 °F 29.75 in NW 3.5 mph 3.5 mph 79% 0.00 in WeatherDisplay:10.37 W/m2 OVC
18:57 64.6 °F 57.9 °F 29.75 in WNW 3.5 mph 3.5 mph 79% 0.00 in WeatherDisplay:10.37 W/m2 OVC
19:02 64.5 °F 58.2 °F 29.75 in NW 3.5 mph 3.5 mph 80% 0.00 in WeatherDisplay:10.37 W/m2 OVC
19:07 64.4 °F 58.1 °F 29.75 in NW 1.2 mph 1.2 mph 80% 0.00 in WeatherDisplay:10.37 W/m2 OVC
19:12 64.4 °F 58.1 °F 29.75 in NW 2.3 mph 2.3 mph 80% 0.00 in WeatherDisplay:10.37 W/m2 OVC
19:17 64.5 °F 58.2 °F 29.75 in WNW 2.3 mph 2.3 mph 80% 0.00 in WeatherDisplay:10.37 W/m2 OVC
19:22 64.6 °F 58.3 °F 29.75 in WNW 3.5 mph   80% 0.00 in WeatherDisplay:10.37 W/m2 OVC
19:27 64.6 °F 58.3 °F 29.74 in WNW 3.5 mph 3.5 mph 80% 0.00 in WeatherDisplay:10.37 W/m2 OVC
19:32 64.7 °F 58.4 °F 29.75 in NW 3.5 mph 3.5 mph 80% 0.00 in WeatherDisplay:10.37 W/m2 CLR
19:38 64.7 °F 58.4 °F 29.75 in NW 3.5 mph 3.5 mph 80% 0.00 in WeatherDisplay:10.37 W/m2 CLR
19:43 64.7 °F 58.7 °F 29.75 in NW 3.5 mph 3.5 mph 81% 0.00 in WeatherDisplay:10.37 W/m2 OVC
19:48 64.8 °F 58.8 °F 29.75 in NW 3.5 mph   81% 0.00 in WeatherDisplay:10.37 W/m2 OVC
19:53 64.8 °F 58.8 °F 29.75 in NW 3.5 mph   81% 0.00 in WeatherDisplay:10.37 W/m2 OVC
19:58 64.7 °F 58.7 °F 29.75 in NW 2.3 mph   81% 0.00 in WeatherDisplay:10.37 W/m2 OVC
20:00 64.7 °F 58.7 °F 29.75 in NW 2.3 mph 2.3 mph 81% 0.00 in WeatherDisplay:10.37 W/m2 OVC
20:05 64.9 °F 59.3 °F 29.75 in WNW 4.6 mph 4.6 mph 82% 0.00 in WeatherDisplay:10.37 W/m2 OVC
20:10 65.0 °F 59.4 °F 29.74 in WNW 4.6 mph 4.6 mph 82% 0.00 in WeatherDisplay:10.37 W/m2 OVC
20:15 65.0 °F 59.4 °F 29.73 in WNW 4.6 mph 4.6 mph 82% 0.00 in WeatherDisplay:10.37 W/m2 OVC
20:20 65.0 °F 59.4 °F 29.72 in NW 4.6 mph 4.6 mph 82% 0.00 in WeatherDisplay:10.37 W/m2 OVC
20:25 64.9 °F 59.6 °F 29.72 in WNW 4.6 mph 4.6 mph 83% 0.00 in WeatherDisplay:10.37 W/m2 OVC
20:30 64.9 °F 59.6 °F 29.72 in NW 3.5 mph 3.5 mph 83% 0.00 in WeatherDisplay:10.37 W/m2 OVC
20:36 64.9 °F 59.6 °F 29.71 in NW 3.5 mph   83% 0.00 in WeatherDisplay:10.37 W/m2 OVC
20:41 64.9 °F 59.6 °F 29.70 in NW 4.6 mph 4.6 mph 83% 0.00 in WeatherDisplay:10.37 W/m2 OVC
20:46 65.0 °F 59.7 °F 29.70 in NW 4.6 mph 4.6 mph 83% 0.00 in WeatherDisplay:10.37 W/m2 OVC
20:51 65.0 °F 59.7 °F 29.70 in NW 4.6 mph 4.6 mph 83% 0.00 in WeatherDisplay:10.37 W/m2 OVC
20:56 64.9 °F 59.6 °F 29.70 in NW 2.3 mph 2.3 mph 83% 0.00 in WeatherDisplay:10.37 W/m2 OVC
21:01 64.9 °F 59.6 °F 29.69 in NW 2.3 mph 2.3 mph 83% 0.00 in WeatherDisplay:10.37 W/m2 OVC
21:06 65.1 °F 59.8 °F 29.68 in NW 3.5 mph 3.5 mph 83% 0.00 in WeatherDisplay:10.37 W/m2 OVC
21:11 65.2 °F 59.9 °F 29.68 in NW 3.5 mph 3.5 mph 83% 0.00 in WeatherDisplay:10.37 W/m2 OVC
21:16 65.4 °F 60.1 °F 29.68 in WNW 4.6 mph 4.6 mph 83% 0.00 in WeatherDisplay:10.37 W/m2 OVC
21:21 65.6 °F 60.0 °F 29.68 in WNW 4.6 mph 4.6 mph 82% 0.00 in WeatherDisplay:10.37 W/m2 OVC
21:27 65.7 °F 60.1 °F 29.67 in WNW 4.6 mph 4.6 mph 82% 0.00 in WeatherDisplay:10.37 W/m2 OVC
21:32 65.9 °F 60.2 °F 29.68 in NW 3.5 mph 3.5 mph 82% 0.00 in WeatherDisplay:10.37 W/m2 OVC
21:37 66.0 °F 60.3 °F 29.68 in NW 4.6 mph 4.6 mph 82% 0.00 in WeatherDisplay:10.37 W/m2 OVC
21:42 66.0 °F 60.3 °F 29.68 in NW 4.6 mph 4.6 mph 82% 0.00 in WeatherDisplay:10.37 W/m2 OVC
21:47 65.9 °F 60.6 °F 29.68 in NW 4.6 mph 4.6 mph 83% 0.00 in WeatherDisplay:10.37 W/m2 OVC
21:52 65.8 °F 60.5 °F 29.69 in NNW 4.6 mph 4.6 mph 83% 0.00 in WeatherDisplay:10.37 W/m2 OVC
21:57 66.0 °F 60.3 °F 29.68 in NW 4.6 mph 4.6 mph 82% 0.00 in WeatherDisplay:10.37 W/m2 OVC
22:02 66.0 °F 60.7 °F 29.68 in NW 4.6 mph 4.6 mph 83% 0.00 in WeatherDisplay:10.37 W/m2 OVC
22:07 65.6 °F 61.0 °F 29.69 in NNW 4.6 mph 4.6 mph 85% 0.00 in WeatherDisplay:10.37 W/m2 OVC
22:12 64.6 °F 60.0 °F 29.74 in North 6.9 mph 6.9 mph 85% 0.11 in WeatherDisplay:10.37 W/m2 RA
22:20 61.7 °F 57.5 °F 29.74 in WNW 6.9 mph 6.9 mph 86% 0.17 in WeatherDisplay:10.37 W/m2 RA
22:25 60.3 °F 56.4 °F 29.75 in WSW 6.9 mph 6.9 mph 87% 0.21 in WeatherDisplay:10.37 W/m2 -RA
22:27 60.0 °F 56.4 °F 29.75 in West 6.9 mph 6.9 mph 88% 0.22 in WeatherDisplay:10.37 W/m2 -RA
22:29 59.7 °F 56.1 °F 29.75 in West 6.9 mph 6.9 mph 88% 0.25 in WeatherDisplay:10.37 W/m2 -RA
22:34 59.1 °F 55.9 °F 29.75 in WNW 5.8 mph 5.8 mph 89% 0.29 in WeatherDisplay:10.37 W/m2 +RA
22:35 59.0 °F 55.8 °F 29.75 in WNW 5.8 mph 5.8 mph 89% 0.29 in WeatherDisplay:10.37 W/m2 +RA
22:40 58.7 °F 55.8 °F 29.75 in West 6.9 mph 6.9 mph 90% 0.30 in WeatherDisplay:10.37 W/m2 +RA
22:45 58.3 °F 55.4 °F 29.74 in NW 6.9 mph 6.9 mph 90% 0.31 in WeatherDisplay:10.37 W/m2 OVC
22:50 57.9 °F 54.7 °F 29.74 in NW 4.6 mph 4.6 mph 89% 0.31 in WeatherDisplay:10.37 W/m2 OVC
22:55 57.6 °F 54.4 °F 29.75 in WNW 4.6 mph 4.6 mph 89% 0.31 in WeatherDisplay:10.37 W/m2 -RA
23:01 57.5 °F 54.3 °F 29.75 in WNW 2.3 mph 2.3 mph 89% 0.31 in WeatherDisplay:10.37 W/m2 -RA
23:06 57.4 °F 54.5 °F 29.75 in WNW 2.3 mph 2.3 mph 90% 0.31 in WeatherDisplay:10.37 W/m2 -RA
23:11 57.2 °F 54.3 °F 29.76 in WNW 3.5 mph   90% 0.25 in WeatherDisplay:10.37 W/m2 -RA
23:16 57.2 °F 54.6 °F 29.76 in WNW 3.5 mph 3.5 mph 91% 0.15 in WeatherDisplay:10.37 W/m2 BKN
23:31 56.9 °F 54.3 °F 29.79 in WNW 4.6 mph 4.6 mph 91% 0.05 in WeatherDisplay:10.37 W/m2 -DZ
23:36 56.6 °F 53.7 °F 29.78 in WNW 4.6 mph 4.6 mph 90% 0.03 in WeatherDisplay:10.37 W/m2 -DZ
23:41 56.2 °F 53.3 °F 29.78 in WNW 3.5 mph 3.5 mph 90% 0.03 in WeatherDisplay:10.37 W/m2 -DZ
23:46 55.9 °F 53.0 °F 29.78 in West 3.5 mph 3.5 mph 90% 0.03 in WeatherDisplay:10.37 W/m2 -DZ
23:52 55.5 °F 52.6 °F 29.79 in WNW 3.5 mph 3.5 mph 90% 0.03 in WeatherDisplay:10.37 W/m2 -DZ
Piedmont Bend
Compliments of Weather Underground - 4 mb